sensor_id;sensor_type;location;lat;lon;timestamp;P1;durP1;ratioP1;P2;durP2;ratioP2
16845;SDS011;8539;53.188;8.696;2022-12-24T00:00:05;19.63;;;10.75;;
16845;SDS011;8539;53.188;8.696;2022-12-24T00:02:32;21.02;;;10.10;;
16845;SDS011;8539;53.188;8.696;2022-12-24T00:04:58;19.13;;;10.85;;
16845;SDS011;8539;53.188;8.696;2022-12-24T00:07:24;20.00;;;12.02;;
16845;SDS011;8539;53.188;8.696;2022-12-24T00:09:50;16.90;;;10.80;;
16845;SDS011;8539;53.188;8.696;2022-12-24T00:12:16;15.40;;;9.20;;
16845;SDS011;8539;53.188;8.696;2022-12-24T00:14:42;14.43;;;9.05;;
16845;SDS011;8539;53.188;8.696;2022-12-24T00:17:08;14.75;;;9.93;;
16845;SDS011;8539;53.188;8.696;2022-12-24T00:19:34;17.40;;;9.93;;
16845;SDS011;8539;53.188;8.696;2022-12-24T00:22:00;16.85;;;9.10;;
16845;SDS011;8539;53.188;8.696;2022-12-24T00:24:26;18.13;;;11.10;;
16845;SDS011;8539;53.188;8.696;2022-12-24T00:26:52;16.15;;;9.95;;
16845;SDS011;8539;53.188;8.696;2022-12-24T00:29:18;13.68;;;9.02;;
16845;SDS011;8539;53.188;8.696;2022-12-24T00:31:44;17.00;;;9.63;;
16845;SDS011;8539;53.188;8.696;2022-12-24T00:34:10;16.27;;;9.82;;
16845;SDS011;8539;53.188;8.696;2022-12-24T00:36:36;15.73;;;9.35;;
16845;SDS011;8539;53.188;8.696;2022-12-24T00:39:02;17.50;;;9.27;;
16845;SDS011;8539;53.188;8.696;2022-12-24T00:41:28;17.55;;;9.70;;
16845;SDS011;8539;53.188;8.696;2022-12-24T00:43:58;19.10;;;10.27;;
16845;SDS011;8539;53.188;8.696;2022-12-24T00:46:28;15.80;;;9.98;;
16845;SDS011;8539;53.188;8.696;2022-12-24T00:48:55;19.08;;;10.40;;
16845;SDS011;8539;53.188;8.696;2022-12-24T00:51:22;19.30;;;10.32;;
16845;SDS011;8539;53.188;8.696;2022-12-24T00:53:49;18.58;;;9.93;;
16845;SDS011;8539;53.188;8.696;2022-12-24T00:56:16;18.02;;;10.00;;
16845;SDS011;8539;53.188;8.696;2022-12-24T00:58:42;17.02;;;10.43;;
16845;SDS011;8539;53.188;8.696;2022-12-24T01:01:09;14.98;;;9.90;;
16845;SDS011;8539;53.188;8.696;2022-12-24T01:03:35;19.05;;;9.65;;
16845;SDS011;8539;53.188;8.696;2022-12-24T01:06:01;19.20;;;10.50;;
16845;SDS011;8539;53.188;8.696;2022-12-24T01:08:32;18.83;;;10.90;;
16845;SDS011;8539;53.188;8.696;2022-12-24T01:11:00;18.65;;;9.57;;
16845;SDS011;8539;53.188;8.696;2022-12-24T01:13:26;21.52;;;10.70;;
16845;SDS011;8539;53.188;8.696;2022-12-24T01:15:53;17.85;;;10.13;;
16845;SDS011;8539;53.188;8.696;2022-12-24T01:18:20;18.15;;;11.18;;
16845;SDS011;8539;53.188;8.696;2022-12-24T01:20:54;18.65;;;10.90;;
16845;SDS011;8539;53.188;8.696;2022-12-24T01:23:28;16.77;;;9.80;;
16845;SDS011;8539;53.188;8.696;2022-12-24T01:25:58;22.60;;;10.80;;
16845;SDS011;8539;53.188;8.696;2022-12-24T01:28:26;19.63;;;10.73;;
16845;SDS011;8539;53.188;8.696;2022-12-24T01:30:52;21.83;;;10.93;;
16845;SDS011;8539;53.188;8.696;2022-12-24T01:33:18;19.70;;;10.43;;
16845;SDS011;8539;53.188;8.696;2022-12-24T01:35:44;19.65;;;11.20;;
16845;SDS011;8539;53.188;8.696;2022-12-24T01:38:11;20.63;;;10.65;;
16845;SDS011;8539;53.188;8.696;2022-12-24T01:40:38;16.00;;;9.80;;
16845;SDS011;8539;53.188;8.696;2022-12-24T01:43:23;18.65;;;9.93;;
16845;SDS011;8539;53.188;8.696;2022-12-24T01:45:53;19.73;;;10.13;;
16845;SDS011;8539;53.188;8.696;2022-12-24T01:51:18;17.05;;;9.70;;
16845;SDS011;8539;53.188;8.696;2022-12-24T01:56:48;18.65;;;10.82;;
16845;SDS011;8539;53.188;8.696;2022-12-24T01:59:32;17.77;;;9.45;;
16845;SDS011;8539;53.188;8.696;2022-12-24T02:02:00;17.80;;;9.95;;
16845;SDS011;8539;53.188;8.696;2022-12-24T02:04:29;14.23;;;8.30;;
16845;SDS011;8539;53.188;8.696;2022-12-24T02:06:56;14.57;;;9.27;;
16845;SDS011;8539;53.188;8.696;2022-12-24T02:09:22;11.88;;;8.02;;
16845;SDS011;8539;53.188;8.696;2022-12-24T02:11:49;13.68;;;8.52;;
16845;SDS011;8539;53.188;8.696;2022-12-24T02:14:15;13.10;;;8.50;;
16845;SDS011;8539;53.188;8.696;2022-12-24T02:16:53;16.38;;;8.57;;
16845;SDS011;8539;53.188;8.696;2022-12-24T02:25:06;16.23;;;8.55;;
16845;SDS011;8539;53.188;8.696;2022-12-24T02:30:30;17.60;;;9.43;;
16845;SDS011;8539;53.188;8.696;2022-12-24T02:33:05;13.65;;;8.43;;
16845;SDS011;8539;53.188;8.696;2022-12-24T02:35:52;17.98;;;9.43;;
16845;SDS011;8539;53.188;8.696;2022-12-24T02:38:33;16.23;;;9.88;;
16845;SDS011;8539;53.188;8.696;2022-12-24T02:41:08;13.45;;;8.35;;
16845;SDS011;8539;53.188;8.696;2022-12-24T02:43:41;18.85;;;9.18;;
16845;SDS011;8539;53.188;8.696;2022-12-24T02:46:12;14.73;;;7.85;;
16845;SDS011;8539;53.188;8.696;2022-12-24T02:48:46;14.90;;;8.88;;
16845;SDS011;8539;53.188;8.696;2022-12-24T02:51:13;13.70;;;7.93;;
16845;SDS011;8539;53.188;8.696;2022-12-24T02:53:40;13.18;;;8.80;;
16845;SDS011;8539;53.188;8.696;2022-12-24T02:56:11;12.93;;;7.80;;
16845;SDS011;8539;53.188;8.696;2022-12-24T03:01:23;14.32;;;8.90;;
16845;SDS011;8539;53.188;8.696;2022-12-24T03:04:11;12.07;;;7.63;;
16845;SDS011;8539;53.188;8.696;2022-12-24T03:13:14;12.77;;;8.00;;
16845;SDS011;8539;53.188;8.696;2022-12-24T03:15:42;16.02;;;8.70;;
16845;SDS011;8539;53.188;8.696;2022-12-24T03:18:11;14.52;;;8.73;;
16845;SDS011;8539;53.188;8.696;2022-12-24T03:23:24;15.38;;;9.05;;
16845;SDS011;8539;53.188;8.696;2022-12-24T03:25:51;13.93;;;8.45;;
16845;SDS011;8539;53.188;8.696;2022-12-24T03:28:18;16.38;;;8.23;;
16845;SDS011;8539;53.188;8.696;2022-12-24T03:30:50;16.25;;;8.48;;
16845;SDS011;8539;53.188;8.696;2022-12-24T03:33:16;13.43;;;8.88;;
16845;SDS011;8539;53.188;8.696;2022-12-24T03:35:43;14.18;;;8.52;;
16845;SDS011;8539;53.188;8.696;2022-12-24T03:38:11;13.85;;;9.85;;
16845;SDS011;8539;53.188;8.696;2022-12-24T03:40:37;14.57;;;9.57;;
16845;SDS011;8539;53.188;8.696;2022-12-24T03:43:03;13.38;;;7.90;;
16845;SDS011;8539;53.188;8.696;2022-12-24T03:45:29;14.45;;;8.48;;
16845;SDS011;8539;53.188;8.696;2022-12-24T03:47:55;14.02;;;7.85;;
16845;SDS011;8539;53.188;8.696;2022-12-24T03:50:21;12.55;;;7.78;;
16845;SDS011;8539;53.188;8.696;2022-12-24T03:52:47;12.77;;;8.40;;
16845;SDS011;8539;53.188;8.696;2022-12-24T03:55:13;14.77;;;8.57;;
16845;SDS011;8539;53.188;8.696;2022-12-24T03:57:39;13.68;;;7.78;;
16845;SDS011;8539;53.188;8.696;2022-12-24T04:00:05;16.02;;;9.40;;
16845;SDS011;8539;53.188;8.696;2022-12-24T04:02:34;14.40;;;8.52;;
16845;SDS011;8539;53.188;8.696;2022-12-24T04:05:00;12.13;;;8.93;;
16845;SDS011;8539;53.188;8.696;2022-12-24T04:07:26;14.00;;;9.45;;
16845;SDS011;8539;53.188;8.696;2022-12-24T04:09:52;11.65;;;7.72;;
16845;SDS011;8539;53.188;8.696;2022-12-24T04:12:17;12.73;;;8.48;;
16845;SDS011;8539;53.188;8.696;2022-12-24T04:14:43;13.80;;;8.85;;
16845;SDS011;8539;53.188;8.696;2022-12-24T04:17:09;11.70;;;7.90;;
16845;SDS011;8539;53.188;8.696;2022-12-24T04:19:38;11.90;;;7.53;;
16845;SDS011;8539;53.188;8.696;2022-12-24T04:22:04;10.63;;;7.97;;
16845;SDS011;8539;53.188;8.696;2022-12-24T04:24:30;10.13;;;7.32;;
16845;SDS011;8539;53.188;8.696;2022-12-24T04:26:55;13.65;;;7.78;;
16845;SDS011;8539;53.188;8.696;2022-12-24T04:29:22;13.13;;;8.23;;
16845;SDS011;8539;53.188;8.696;2022-12-24T04:31:48;12.15;;;8.73;;
16845;SDS011;8539;53.188;8.696;2022-12-24T04:34:14;13.48;;;8.98;;
16845;SDS011;8539;53.188;8.696;2022-12-24T04:36:40;14.88;;;9.07;;
16845;SDS011;8539;53.188;8.696;2022-12-24T04:39:06;16.50;;;9.18;;
16845;SDS011;8539;53.188;8.696;2022-12-24T04:41:32;14.50;;;8.75;;
16845;SDS011;8539;53.188;8.696;2022-12-24T04:43:58;14.73;;;8.55;;
16845;SDS011;8539;53.188;8.696;2022-12-24T04:46:25;16.30;;;9.60;;
16845;SDS011;8539;53.188;8.696;2022-12-24T04:48:55;19.50;;;9.63;;
16845;SDS011;8539;53.188;8.696;2022-12-24T04:51:21;19.33;;;8.60;;
16845;SDS011;8539;53.188;8.696;2022-12-24T04:53:49;17.98;;;9.82;;
16845;SDS011;8539;53.188;8.696;2022-12-24T04:56:16;14.30;;;8.50;;
16845;SDS011;8539;53.188;8.696;2022-12-24T04:58:46;14.75;;;9.02;;
16845;SDS011;8539;53.188;8.696;2022-12-24T05:01:15;18.48;;;10.05;;
16845;SDS011;8539;53.188;8.696;2022-12-24T05:03:43;16.77;;;10.68;;
16845;SDS011;8539;53.188;8.696;2022-12-24T05:06:10;12.45;;;8.95;;
16845;SDS011;8539;53.188;8.696;2022-12-24T05:08:38;16.63;;;9.70;;
16845;SDS011;8539;53.188;8.696;2022-12-24T05:11:04;13.02;;;8.90;;
16845;SDS011;8539;53.188;8.696;2022-12-24T05:13:31;15.45;;;8.70;;
16845;SDS011;8539;53.188;8.696;2022-12-24T05:15:58;15.20;;;9.73;;
16845;SDS011;8539;53.188;8.696;2022-12-24T05:18:24;14.40;;;9.25;;
16845;SDS011;8539;53.188;8.696;2022-12-24T05:20:50;14.35;;;9.68;;
16845;SDS011;8539;53.188;8.696;2022-12-24T05:23:17;12.63;;;8.75;;
16845;SDS011;8539;53.188;8.696;2022-12-24T05:26:10;16.70;;;10.60;;
16845;SDS011;8539;53.188;8.696;2022-12-24T05:28:52;15.13;;;9.77;;
16845;SDS011;8539;53.188;8.696;2022-12-24T05:31:20;17.98;;;9.98;;
16845;SDS011;8539;53.188;8.696;2022-12-24T05:33:48;19.67;;;11.07;;
16845;SDS011;8539;53.188;8.696;2022-12-24T05:36:14;19.52;;;10.10;;
16845;SDS011;8539;53.188;8.696;2022-12-24T05:38:40;16.38;;;9.40;;
16845;SDS011;8539;53.188;8.696;2022-12-24T05:41:08;24.75;;;12.32;;
16845;SDS011;8539;53.188;8.696;2022-12-24T05:43:35;25.45;;;13.25;;
16845;SDS011;8539;53.188;8.696;2022-12-24T05:46:02;27.13;;;13.73;;
16845;SDS011;8539;53.188;8.696;2022-12-24T05:48:32;29.88;;;15.35;;
16845;SDS011;8539;53.188;8.696;2022-12-24T05:51:02;24.23;;;14.40;;
16845;SDS011;8539;53.188;8.696;2022-12-24T05:53:30;27.10;;;15.90;;
16845;SDS011;8539;53.188;8.696;2022-12-24T05:58:36;28.30;;;15.25;;
16845;SDS011;8539;53.188;8.696;2022-12-24T06:01:03;26.20;;;14.95;;
16845;SDS011;8539;53.188;8.696;2022-12-24T06:03:30;32.50;;;17.63;;
16845;SDS011;8539;53.188;8.696;2022-12-24T06:06:10;35.63;;;20.20;;
16845;SDS011;8539;53.188;8.696;2022-12-24T06:08:38;32.67;;;17.10;;
16845;SDS011;8539;53.188;8.696;2022-12-24T06:11:06;36.55;;;18.88;;
16845;SDS011;8539;53.188;8.696;2022-12-24T06:13:36;32.10;;;18.70;;
16845;SDS011;8539;53.188;8.696;2022-12-24T06:16:03;39.55;;;19.23;;
16845;SDS011;8539;53.188;8.696;2022-12-24T06:18:31;38.15;;;19.05;;
16845;SDS011;8539;53.188;8.696;2022-12-24T06:20:58;31.75;;;16.50;;
16845;SDS011;8539;53.188;8.696;2022-12-24T06:23:25;32.42;;;18.10;;
16845;SDS011;8539;53.188;8.696;2022-12-24T06:25:55;35.22;;;19.15;;
16845;SDS011;8539;53.188;8.696;2022-12-24T06:28:22;32.88;;;17.98;;
16845;SDS011;8539;53.188;8.696;2022-12-24T06:30:49;38.92;;;20.30;;
16845;SDS011;8539;53.188;8.696;2022-12-24T06:33:16;39.85;;;19.88;;
16845;SDS011;8539;53.188;8.696;2022-12-24T06:35:45;35.67;;;20.00;;
16845;SDS011;8539;53.188;8.696;2022-12-24T06:38:12;36.63;;;19.67;;
16845;SDS011;8539;53.188;8.696;2022-12-24T06:40:40;40.10;;;20.92;;
16845;SDS011;8539;53.188;8.696;2022-12-24T06:43:07;36.00;;;18.70;;
16845;SDS011;8539;53.188;8.696;2022-12-24T06:45:34;34.20;;;18.30;;
16845;SDS011;8539;53.188;8.696;2022-12-24T06:48:00;42.20;;;20.70;;
16845;SDS011;8539;53.188;8.696;2022-12-24T06:50:26;28.35;;;17.08;;
16845;SDS011;8539;53.188;8.696;2022-12-24T06:52:53;40.65;;;17.95;;
16845;SDS011;8539;53.188;8.696;2022-12-24T06:55:19;29.60;;;16.70;;
16845;SDS011;8539;53.188;8.696;2022-12-24T06:57:45;31.45;;;17.15;;
16845;SDS011;8539;53.188;8.696;2022-12-24T07:00:11;32.47;;;17.55;;
16845;SDS011;8539;53.188;8.696;2022-12-24T07:02:41;32.30;;;16.83;;
16845;SDS011;8539;53.188;8.696;2022-12-24T07:05:08;35.85;;;17.05;;
16845;SDS011;8539;53.188;8.696;2022-12-24T07:07:36;29.50;;;16.67;;
16845;SDS011;8539;53.188;8.696;2022-12-24T07:10:03;34.67;;;16.83;;
16845;SDS011;8539;53.188;8.696;2022-12-24T07:12:30;30.77;;;16.65;;
16845;SDS011;8539;53.188;8.696;2022-12-24T07:14:56;24.83;;;14.07;;
16845;SDS011;8539;53.188;8.696;2022-12-24T07:17:22;30.27;;;16.05;;
16845;SDS011;8539;53.188;8.696;2022-12-24T07:19:48;33.80;;;15.15;;
16845;SDS011;8539;53.188;8.696;2022-12-24T07:22:14;31.73;;;13.02;;
16845;SDS011;8539;53.188;8.696;2022-12-24T07:24:40;27.52;;;12.45;;
16845;SDS011;8539;53.188;8.696;2022-12-24T07:27:06;34.05;;;11.68;;
16845;SDS011;8539;53.188;8.696;2022-12-24T07:29:33;28.27;;;11.90;;
16845;SDS011;8539;53.188;8.696;2022-12-24T07:31:59;35.53;;;10.07;;
16845;SDS011;8539;53.188;8.696;2022-12-24T07:34:25;25.15;;;8.40;;
16845;SDS011;8539;53.188;8.696;2022-12-24T07:36:51;28.42;;;8.13;;
16845;SDS011;8539;53.188;8.696;2022-12-24T07:39:17;34.35;;;9.93;;
16845;SDS011;8539;53.188;8.696;2022-12-24T07:41:43;35.13;;;8.82;;
16845;SDS011;8539;53.188;8.696;2022-12-24T07:44:13;26.48;;;7.82;;
16845;SDS011;8539;53.188;8.696;2022-12-24T07:46:39;24.00;;;6.43;;
16845;SDS011;8539;53.188;8.696;2022-12-24T07:49:05;39.20;;;7.40;;
16845;SDS011;8539;53.188;8.696;2022-12-24T07:51:31;28.13;;;6.85;;
16845;SDS011;8539;53.188;8.696;2022-12-24T07:53:57;27.60;;;7.35;;
16845;SDS011;8539;53.188;8.696;2022-12-24T07:56:23;28.20;;;6.45;;
16845;SDS011;8539;53.188;8.696;2022-12-24T07:58:50;29.73;;;8.32;;
16845;SDS011;8539;53.188;8.696;2022-12-24T08:01:16;30.35;;;8.32;;
16845;SDS011;8539;53.188;8.696;2022-12-24T08:03:43;35.53;;;7.47;;
16845;SDS011;8539;53.188;8.696;2022-12-24T08:06:10;25.55;;;6.10;;
16845;SDS011;8539;53.188;8.696;2022-12-24T08:08:36;33.95;;;8.23;;
16845;SDS011;8539;53.188;8.696;2022-12-24T08:11:03;33.55;;;7.07;;
16845;SDS011;8539;53.188;8.696;2022-12-24T08:13:31;25.25;;;6.32;;
16845;SDS011;8539;53.188;8.696;2022-12-24T08:15:57;40.45;;;8.00;;
16845;SDS011;8539;53.188;8.696;2022-12-24T08:18:23;31.30;;;9.10;;
16845;SDS011;8539;53.188;8.696;2022-12-24T08:20:49;37.40;;;7.20;;
16845;SDS011;8539;53.188;8.696;2022-12-24T08:23:15;32.03;;;8.70;;
16845;SDS011;8539;53.188;8.696;2022-12-24T08:25:46;35.65;;;6.22;;
16845;SDS011;8539;53.188;8.696;2022-12-24T08:28:13;29.65;;;6.30;;
16845;SDS011;8539;53.188;8.696;2022-12-24T08:30:47;38.95;;;10.40;;
16845;SDS011;8539;53.188;8.696;2022-12-24T08:33:14;23.52;;;7.03;;
16845;SDS011;8539;53.188;8.696;2022-12-24T08:35:51;36.63;;;7.75;;
16845;SDS011;8539;53.188;8.696;2022-12-24T08:38:19;28.23;;;7.03;;
16845;SDS011;8539;53.188;8.696;2022-12-24T08:40:46;30.25;;;6.25;;
16845;SDS011;8539;53.188;8.696;2022-12-24T08:43:17;43.35;;;9.43;;
16845;SDS011;8539;53.188;8.696;2022-12-24T08:45:45;44.88;;;9.50;;
16845;SDS011;8539;53.188;8.696;2022-12-24T08:48:12;27.50;;;6.85;;
16845;SDS011;8539;53.188;8.696;2022-12-24T08:50:38;40.90;;;8.05;;
16845;SDS011;8539;53.188;8.696;2022-12-24T08:53:05;28.75;;;6.15;;
16845;SDS011;8539;53.188;8.696;2022-12-24T08:55:32;32.13;;;7.90;;
16845;SDS011;8539;53.188;8.696;2022-12-24T08:57:58;36.70;;;6.70;;
16845;SDS011;8539;53.188;8.696;2022-12-24T09:00:25;35.25;;;6.22;;
16845;SDS011;8539;53.188;8.696;2022-12-24T09:02:51;37.90;;;8.00;;
16845;SDS011;8539;53.188;8.696;2022-12-24T09:05:17;36.17;;;9.77;;
16845;SDS011;8539;53.188;8.696;2022-12-24T09:07:43;31.55;;;8.95;;
16845;SDS011;8539;53.188;8.696;2022-12-24T09:10:10;51.30;;;10.73;;
16845;SDS011;8539;53.188;8.696;2022-12-24T09:12:36;40.00;;;7.88;;
16845;SDS011;8539;53.188;8.696;2022-12-24T09:15:02;29.92;;;7.60;;
16845;SDS011;8539;53.188;8.696;2022-12-24T09:17:30;28.92;;;7.40;;
16845;SDS011;8539;53.188;8.696;2022-12-24T09:19:58;35.17;;;7.47;;
16845;SDS011;8539;53.188;8.696;2022-12-24T09:22:24;34.35;;;10.98;;
16845;SDS011;8539;53.188;8.696;2022-12-24T09:24:52;42.80;;;8.88;;
16845;SDS011;8539;53.188;8.696;2022-12-24T09:27:18;46.08;;;8.35;;
16845;SDS011;8539;53.188;8.696;2022-12-24T09:29:44;38.40;;;10.10;;
16845;SDS011;8539;53.188;8.696;2022-12-24T09:32:11;34.88;;;9.25;;
16845;SDS011;8539;53.188;8.696;2022-12-24T09:34:36;42.28;;;11.27;;
16845;SDS011;8539;53.188;8.696;2022-12-24T09:37:03;38.33;;;8.38;;
16845;SDS011;8539;53.188;8.696;2022-12-24T09:39:29;37.35;;;8.98;;
16845;SDS011;8539;53.188;8.696;2022-12-24T09:41:58;41.33;;;10.48;;
16845;SDS011;8539;53.188;8.696;2022-12-24T09:49:48;36.70;;;10.30;;
16845;SDS011;8539;53.188;8.696;2022-12-24T09:52:28;57.70;;;12.55;;
16845;SDS011;8539;53.188;8.696;2022-12-24T09:55:05;30.55;;;9.65;;
16845;SDS011;8539;53.188;8.696;2022-12-24T10:00:18;45.00;;;10.32;;
16845;SDS011;8539;53.188;8.696;2022-12-24T10:02:47;32.15;;;8.65;;
16845;SDS011;8539;53.188;8.696;2022-12-24T10:05:14;33.22;;;9.85;;
16845;SDS011;8539;53.188;8.696;2022-12-24T10:10:25;45.75;;;9.35;;
16845;SDS011;8539;53.188;8.696;2022-12-24T10:13:38;39.63;;;8.25;;
16845;SDS011;8539;53.188;8.696;2022-12-24T10:16:26;36.63;;;9.43;;
16845;SDS011;8539;53.188;8.696;2022-12-24T10:27:20;39.38;;;9.52;;
16845;SDS011;8539;53.188;8.696;2022-12-24T10:29:52;40.60;;;11.48;;
16845;SDS011;8539;53.188;8.696;2022-12-24T10:32:40;37.50;;;11.27;;
16845;SDS011;8539;53.188;8.696;2022-12-24T10:37:38;34.45;;;8.65;;
16845;SDS011;8539;53.188;8.696;2022-12-24T10:40:07;40.63;;;11.05;;
16845;SDS011;8539;53.188;8.696;2022-12-24T10:42:53;29.55;;;7.25;;
16845;SDS011;8539;53.188;8.696;2022-12-24T10:45:20;39.25;;;9.38;;
16845;SDS011;8539;53.188;8.696;2022-12-24T10:47:49;32.50;;;7.72;;
16845;SDS011;8539;53.188;8.696;2022-12-24T10:50:24;31.23;;;9.05;;
16845;SDS011;8539;53.188;8.696;2022-12-24T10:52:59;31.90;;;10.18;;
16845;SDS011;8539;53.188;8.696;2022-12-24T10:56:05;37.88;;;9.05;;
16845;SDS011;8539;53.188;8.696;2022-12-24T10:58:33;33.85;;;7.95;;
16845;SDS011;8539;53.188;8.696;2022-12-24T11:01:00;29.23;;;7.65;;
16845;SDS011;8539;53.188;8.696;2022-12-24T11:05:58;40.55;;;10.55;;
16845;SDS011;8539;53.188;8.696;2022-12-24T11:08:42;24.98;;;7.38;;
16845;SDS011;8539;53.188;8.696;2022-12-24T11:11:10;34.88;;;7.93;;
16845;SDS011;8539;53.188;8.696;2022-12-24T11:18:53;23.67;;;7.68;;
16845;SDS011;8539;53.188;8.696;2022-12-24T11:21:25;28.95;;;9.15;;
16845;SDS011;8539;53.188;8.696;2022-12-24T11:24:05;36.10;;;6.03;;
16845;SDS011;8539;53.188;8.696;2022-12-24T11:26:44;28.67;;;8.18;;
16845;SDS011;8539;53.188;8.696;2022-12-24T11:31:43;36.83;;;7.03;;
16845;SDS011;8539;53.188;8.696;2022-12-24T11:34:43;32.53;;;6.50;;
16845;SDS011;8539;53.188;8.696;2022-12-24T11:37:14;23.27;;;7.07;;
16845;SDS011;8539;53.188;8.696;2022-12-24T11:39:54;27.33;;;9.65;;
16845;SDS011;8539;53.188;8.696;2022-12-24T11:45:06;25.38;;;6.43;;
16845;SDS011;8539;53.188;8.696;2022-12-24T11:47:45;37.95;;;9.30;;
16845;SDS011;8539;53.188;8.696;2022-12-24T11:50:19;24.80;;;6.43;;
16845;SDS011;8539;53.188;8.696;2022-12-24T11:58:22;35.53;;;8.85;;
16845;SDS011;8539;53.188;8.696;2022-12-24T12:01:10;29.25;;;6.70;;
16845;SDS011;8539;53.188;8.696;2022-12-24T12:03:47;45.58;;;10.45;;
16845;SDS011;8539;53.188;8.696;2022-12-24T12:08:55;42.85;;;7.07;;
16845;SDS011;8539;53.188;8.696;2022-12-24T12:11:25;33.83;;;6.55;;
16845;SDS011;8539;53.188;8.696;2022-12-24T12:13:52;35.47;;;9.38;;
16845;SDS011;8539;53.188;8.696;2022-12-24T12:19:22;40.03;;;7.15;;
16845;SDS011;8539;53.188;8.696;2022-12-24T12:21:50;48.58;;;10.57;;
16845;SDS011;8539;53.188;8.696;2022-12-24T12:24:33;27.08;;;7.25;;
16845;SDS011;8539;53.188;8.696;2022-12-24T12:27:48;32.55;;;7.25;;
16845;SDS011;8539;53.188;8.696;2022-12-24T12:29:51;32.45;;;8.90;;
16845;SDS011;8539;53.188;8.696;2022-12-24T12:35:17;36.60;;;8.98;;
16845;SDS011;8539;53.188;8.696;2022-12-24T12:37:53;25.60;;;7.35;;
16845;SDS011;8539;53.188;8.696;2022-12-24T12:46:28;31.10;;;8.82;;
16845;SDS011;8539;53.188;8.696;2022-12-24T12:57:42;28.10;;;7.25;;
16845;SDS011;8539;53.188;8.696;2022-12-24T13:00:14;24.30;;;6.72;;
16845;SDS011;8539;53.188;8.696;2022-12-24T13:05:44;23.70;;;7.43;;
16845;SDS011;8539;53.188;8.696;2022-12-24T13:14:10;28.10;;;8.88;;
16845;SDS011;8539;53.188;8.696;2022-12-24T13:22:03;31.63;;;7.55;;
16845;SDS011;8539;53.188;8.696;2022-12-24T13:24:38;23.67;;;6.78;;
16845;SDS011;8539;53.188;8.696;2022-12-24T13:32:46;14.77;;;5.57;;
16845;SDS011;8539;53.188;8.696;2022-12-24T13:37:43;26.38;;;7.13;;
16845;SDS011;8539;53.188;8.696;2022-12-24T13:42:48;21.92;;;6.38;;
16845;SDS011;8539;53.188;8.696;2022-12-24T13:56:24;26.17;;;5.05;;
16845;SDS011;8539;53.188;8.696;2022-12-24T13:59:10;22.70;;;5.95;;
16845;SDS011;8539;53.188;8.696;2022-12-24T14:01:59;20.55;;;5.95;;
16845;SDS011;8539;53.188;8.696;2022-12-24T14:04:27;23.50;;;9.45;;
16845;SDS011;8539;53.188;8.696;2022-12-24T14:06:57;28.63;;;6.13;;
16845;SDS011;8539;53.188;8.696;2022-12-24T14:09:25;23.83;;;6.32;;
16845;SDS011;8539;53.188;8.696;2022-12-24T14:14:39;28.27;;;5.90;;
16845;SDS011;8539;53.188;8.696;2022-12-24T14:19:56;17.48;;;4.10;;
16845;SDS011;8539;53.188;8.696;2022-12-24T14:24:55;20.90;;;5.35;;
16845;SDS011;8539;53.188;8.696;2022-12-24T14:32:35;14.48;;;4.32;;
16845;SDS011;8539;53.188;8.696;2022-12-24T14:35:14;23.60;;;6.75;;
16845;SDS011;8539;53.188;8.696;2022-12-24T14:37:41;24.88;;;6.95;;
16845;SDS011;8539;53.188;8.696;2022-12-24T14:40:28;19.02;;;4.30;;
16845;SDS011;8539;53.188;8.696;2022-12-24T14:48:47;16.20;;;4.32;;
16845;SDS011;8539;53.188;8.696;2022-12-24T14:51:27;19.13;;;5.15;;
16845;SDS011;8539;53.188;8.696;2022-12-24T14:59:46;22.33;;;5.28;;
16845;SDS011;8539;53.188;8.696;2022-12-24T15:05:44;18.08;;;4.22;;
16845;SDS011;8539;53.188;8.696;2022-12-24T15:07:55;24.77;;;5.32;;
16845;SDS011;8539;53.188;8.696;2022-12-24T15:10:34;19.42;;;5.15;;
16845;SDS011;8539;53.188;8.696;2022-12-24T15:13:11;18.80;;;6.30;;
16845;SDS011;8539;53.188;8.696;2022-12-24T15:15:45;18.13;;;5.30;;
16845;SDS011;8539;53.188;8.696;2022-12-24T15:18:14;17.23;;;5.93;;
16845;SDS011;8539;53.188;8.696;2022-12-24T15:20:42;18.73;;;6.03;;
16845;SDS011;8539;53.188;8.696;2022-12-24T15:23:20;17.17;;;4.28;;
16845;SDS011;8539;53.188;8.696;2022-12-24T15:26:43;21.20;;;5.13;;
16845;SDS011;8539;53.188;8.696;2022-12-24T15:29:01;26.90;;;4.85;;
16845;SDS011;8539;53.188;8.696;2022-12-24T15:31:41;19.65;;;5.97;;
16845;SDS011;8539;53.188;8.696;2022-12-24T15:34:24;16.55;;;4.50;;
16845;SDS011;8539;53.188;8.696;2022-12-24T15:36:50;18.17;;;4.45;;
16845;SDS011;8539;53.188;8.696;2022-12-24T15:39:16;30.92;;;6.00;;
16845;SDS011;8539;53.188;8.696;2022-12-24T15:41:43;16.33;;;4.93;;
16845;SDS011;8539;53.188;8.696;2022-12-24T15:44:31;31.58;;;5.18;;
16845;SDS011;8539;53.188;8.696;2022-12-24T15:47:03;18.08;;;4.72;;
16845;SDS011;8539;53.188;8.696;2022-12-24T15:49:32;24.90;;;4.97;;
16845;SDS011;8539;53.188;8.696;2022-12-24T15:52:05;26.95;;;6.18;;
16845;SDS011;8539;53.188;8.696;2022-12-24T16:09:51;24.88;;;5.38;;
16845;SDS011;8539;53.188;8.696;2022-12-24T16:12:39;17.63;;;5.05;;
16845;SDS011;8539;53.188;8.696;2022-12-24T16:15:11;24.95;;;6.03;;
16845;SDS011;8539;53.188;8.696;2022-12-24T16:17:39;20.98;;;5.00;;
16845;SDS011;8539;53.188;8.696;2022-12-24T16:20:15;18.58;;;6.28;;
16845;SDS011;8539;53.188;8.696;2022-12-24T16:22:45;17.70;;;4.63;;
16845;SDS011;8539;53.188;8.696;2022-12-24T16:25:25;21.17;;;5.10;;
16845;SDS011;8539;53.188;8.696;2022-12-24T16:35:11;20.95;;;5.82;;
16845;SDS011;8539;53.188;8.696;2022-12-24T16:37:48;18.48;;;4.00;;
16845;SDS011;8539;53.188;8.696;2022-12-24T16:40:14;22.27;;;5.13;;
16845;SDS011;8539;53.188;8.696;2022-12-24T16:42:40;20.38;;;5.45;;
16845;SDS011;8539;53.188;8.696;2022-12-24T16:45:28;22.35;;;4.95;;
16845;SDS011;8539;53.188;8.696;2022-12-24T16:47:56;17.58;;;4.43;;
16845;SDS011;8539;53.188;8.696;2022-12-24T16:50:23;14.38;;;4.50;;
16845;SDS011;8539;53.188;8.696;2022-12-24T16:52:49;26.95;;;6.43;;
16845;SDS011;8539;53.188;8.696;2022-12-24T16:55:15;12.93;;;4.88;;
16845;SDS011;8539;53.188;8.696;2022-12-24T16:57:41;34.75;;;8.18;;
16845;SDS011;8539;53.188;8.696;2022-12-24T17:00:19;22.27;;;4.10;;
16845;SDS011;8539;53.188;8.696;2022-12-24T17:02:47;17.70;;;4.57;;
16845;SDS011;8539;53.188;8.696;2022-12-24T17:05:14;15.05;;;3.30;;
16845;SDS011;8539;53.188;8.696;2022-12-24T17:07:41;14.45;;;5.03;;
16845;SDS011;8539;53.188;8.696;2022-12-24T17:10:09;16.40;;;4.07;;
16845;SDS011;8539;53.188;8.696;2022-12-24T17:12:36;12.43;;;3.63;;
16845;SDS011;8539;53.188;8.696;2022-12-24T17:15:02;16.25;;;3.90;;
16845;SDS011;8539;53.188;8.696;2022-12-24T17:17:30;18.98;;;4.85;;
16845;SDS011;8539;53.188;8.696;2022-12-24T17:19:56;13.50;;;3.88;;
16845;SDS011;8539;53.188;8.696;2022-12-24T17:22:23;13.57;;;4.05;;
16845;SDS011;8539;53.188;8.696;2022-12-24T17:24:54;24.55;;;5.30;;
16845;SDS011;8539;53.188;8.696;2022-12-24T17:27:21;21.83;;;4.53;;
16845;SDS011;8539;53.188;8.696;2022-12-24T17:29:47;17.02;;;4.15;;
16845;SDS011;8539;53.188;8.696;2022-12-24T17:32:13;17.77;;;4.07;;
16845;SDS011;8539;53.188;8.696;2022-12-24T17:34:39;16.85;;;4.57;;
16845;SDS011;8539;53.188;8.696;2022-12-24T17:37:05;21.17;;;5.28;;
16845;SDS011;8539;53.188;8.696;2022-12-24T17:39:31;24.88;;;5.55;;
16845;SDS011;8539;53.188;8.696;2022-12-24T17:41:57;22.13;;;4.90;;
16845;SDS011;8539;53.188;8.696;2022-12-24T17:44:25;21.25;;;5.30;;
16845;SDS011;8539;53.188;8.696;2022-12-24T17:46:51;18.77;;;5.13;;
16845;SDS011;8539;53.188;8.696;2022-12-24T17:49:17;15.32;;;4.65;;
16845;SDS011;8539;53.188;8.696;2022-12-24T17:51:43;11.25;;;4.00;;
16845;SDS011;8539;53.188;8.696;2022-12-24T17:54:10;19.55;;;4.88;;
16845;SDS011;8539;53.188;8.696;2022-12-24T17:56:37;11.95;;;4.57;;
16845;SDS011;8539;53.188;8.696;2022-12-24T17:59:03;19.58;;;4.90;;